My Meet Scores
Alanna Banks, Naperville Gymnastics Club - MyMeetScores.com
Top100 | Top Teams | Upcoming Meets | Completed Meets | Latest | Add Scores | Help| Support | Bookmark and Share

Alanna Banks, Naperville Gymnastics Club
Personal Bests
LevelVault BarsBeamFloorAA
39.5009.400 9.4509.42537.500
49.0509.350 9.6009.30036.800
79.2509.100 9.6009.25037.200
88.7508.725 7.8508.97534.300
XB9.3759.750 9.8009.30038.075
Meet Scores
Date Meet Team Session Level Division Vault Bars Beam Floor AA
2022-12-02 Flipstar%27s Home for the Holidays Naperville Gymnastics Club 03 8 Junior A 8.750 6 8.725 4 7.850 7 8.975 7 34.300 5
2022-04-28 Region 5 Level 6-8 Regional Championship Naperville Gymnastics Club A13 7 Ch B2 9.100 27 8.350 28 9.200 27 8.275 30 34.925 30
2022-04-27 2022 Region 5 Level 6,7,8 Championships Naperville Gymnastics Club A13 7 Ch B2 9.100 27 8.350 28 9.200 27 8.275 30 34.925 30
2022-04-01 Level 6-7-8 State 2022 Naperville Gymnastics Club 05 7 Ch C 8.650 22 8.825 15 9.175 15T 8.650 25 35.300 20
2022-03-04 2022 Flip'r S.O.U.L. Invitational Naperville Gymnastics Club 3 7 CHILD 9.250 2 9.100 7 9.600 1 9.250 11 37.200 2
2022-02-24 Region 5 - R5 Insider Classic Naperville Gymnastics Club R10 7 Jr B 8.450 13 8.950 7 9.225 7 8.650 13 35.275 11
2022-02-04 Buckeye Classic Naperville Gymnastics Club FG4 7 A 8.525 11 7.950 12 9.075 6 9.000 7T 34.550 11
2022-01-21 Vegas Cup 2022 Naperville Gymnastics Club G3 7 B 8.350 9 7.750 10 8.825 5 9.075 8 34.000 8
2022-01-14 2022 Bravo Classic Naperville Gymnastics Club 10B 7 Jr 8.700 18T 8.350 14 8.325 18 8.900 18 34.275 18
2021-12-03 Flipstar's Home for the Holidays Naperville Gymnastics Club 2 7 Younger 9.000 6 7.700 10 8.175 9 8.850 7T 33.725 10
2021-03-12 2021 Illinois Level 4 State Championships Naperville Gymnastics Club 6 4 Sr A 9.025 8 9.350 12 9.400 5T 9.025 12 36.800 6
2021-03-05 NGC Flip'r S.O.U.L. Invitational Naperville Gymnastics Club 01 4 JR B 8.925 3 8.350 7T 9.400 1 9.000 4 35.675 2
2021-02-19 BIG Classic 2021 Naperville Gymnastics Club VIR 4 *** 9.050 24T 9.050 16T 9.600 3T 9.100 16T 36.800 7
2021-01-14 2021 Bravo Classic Naperville Gymnastics Club 5 4 Sr 9.000 12T 9.300 4T 8.700 19T 9.300 4T 36.300 10
2020-12-04 Flipstar's Home for the Holidays Naperville Gymnastics Club 23 4 All 8.525 4 8.650 5 8.500 7T 9.175 5 34.850 3
2020-03-06 2020 Flip'r Invitational Naperville Gymnastics Club 1 3 SR A 9.450 4T 9.400 3T 9.075 2 9.400 1 37.325 1
2020-02-21 Kinetic Classic Naperville Gymnastics Club 05 3 Older 9.150 39T 9.300 20T 9.050 39T 9.375 21T 36.875 22T
2020-02-07 SCGA Classic Naperville Gymnastics Club 1 3 Jr C 9.325 2 9.150 2 8.725 2 9.275 1 36.475 1
2020-01-31 Big Chill Naperville Gymnastics Club 6 3 9 9.475 1 9.150 3 9.450 2 9.425 2 37.500 1
2020-01-17 2020 Bravo Classic Naperville Gymnastics Club 7B 3 Sr 9.375 5T 9.250 8T 9.050 7 9.200 8 36.875 5
2020-01-10 Leenda's Island Adventure Naperville Gymnastics Club GG3 3 9 Year Old 9.500 1 9.075 3 9.075 3T 9.000 6 36.650 1
2019-12-07 Home for the Holidays 2019 Naperville Gymnastics Club 2 3 Sr C 9.000 11T 9.250 8 8.750 3 9.225 3 36.225 4
2019-04-13 2019 Illinois XB, XS State Championships Naperville Gymnastics Club 7 XB Ch C 9.225 14 9.750 10T 9.650 4 9.300 14T 37.925 11
2019-03-08 Lucky Invite Naperville Gymnastics Club B05 XB Jr B 9.375 4 9.675 2 9.800 1 9.225 4 38.075 2
2019-03-01 NGCD Academy's 2019 Flip'r Invitational Naperville Gymnastics Club 3 XB All 9.125 3T 9.600 3T 9.525 5T 8.950 11 37.200 5
2019-02-01 The Big Chill Naperville Gymnastics Club 4 XB 7 & 8 yr o 8.800 8 9.575 2 9.500 2 8.800 9 36.675 6
Get your scores on
a t-shirt, pin, or hoodie